createdAt,value
2023-02-25T00:00:34.822Z,56.25
2023-02-25T00:03:01.926Z,56.21
2023-02-25T00:05:31.686Z,55.27
2023-02-25T00:07:59.568Z,55.86
2023-02-25T00:10:26.184Z,55.32
2023-02-25T00:12:52.945Z,55.07
2023-02-25T00:15:19.781Z,54.97
2023-02-25T00:17:49.722Z,55.09
2023-02-25T00:20:18.474Z,54.93
2023-02-25T00:22:45.104Z,55.00
2023-02-25T00:25:11.943Z,54.81
2023-02-25T00:27:38.550Z,54.66
2023-02-25T00:30:05.866Z,54.33
2023-02-25T00:32:32.759Z,54.56
2023-02-25T00:34:59.589Z,55.09
2023-02-25T00:37:26.314Z,55.46
2023-02-25T00:39:52.941Z,55.71
2023-02-25T00:42:19.824Z,55.19
2023-02-25T00:44:48.283Z,56.04
2023-02-25T00:47:17.668Z,56.28
2023-02-25T00:49:47.335Z,55.95
2023-02-25T00:52:15.758Z,56.50
2023-02-25T00:54:42.803Z,56.69
2023-02-25T00:57:10.031Z,56.46
2023-02-25T00:59:36.729Z,56.77
2023-02-25T01:02:03.856Z,56.82
2023-02-25T01:04:30.766Z,57.73
2023-02-25T01:06:57.861Z,57.57
2023-02-25T01:09:25.627Z,57.05
2023-02-25T01:11:52.286Z,57.22
2023-02-25T01:14:21.887Z,57.66
2023-02-25T01:16:50.812Z,57.86
2023-02-25T01:19:26.972Z,57.65
2023-02-25T01:21:56.721Z,57.59
2023-02-25T01:24:28.037Z,57.21
2023-02-25T01:26:57.693Z,57.36
2023-02-25T01:29:30.800Z,57.27
2023-02-25T01:32:00.026Z,57.32
2023-02-25T01:34:28.824Z,56.97
2023-02-25T01:36:56.728Z,57.41
2023-02-25T01:39:26.461Z,57.19
2023-02-25T01:41:55.705Z,57.62
2023-02-25T01:44:32.884Z,58.13
2023-02-25T01:47:01.357Z,57.90
2023-02-25T01:49:46.277Z,57.85
2023-02-25T01:52:15.302Z,58.01
2023-02-25T01:54:45.338Z,57.99
2023-02-25T01:57:15.064Z,57.87
2023-02-25T01:59:43.131Z,58.26
2023-02-25T02:02:15.614Z,58.50
2023-02-25T02:04:43.999Z,57.98
2023-02-25T02:07:11.195Z,58.56
2023-02-25T02:09:40.277Z,58.10
2023-02-25T02:12:07.511Z,57.67
2023-02-25T02:14:42.243Z,58.31
2023-02-25T02:17:30.207Z,58.69
2023-02-25T02:21:05.527Z,59.25
2023-02-25T02:23:41.124Z,58.05
2023-02-25T02:26:43.394Z,57.74
2023-02-25T02:29:48.788Z,58.33
2023-02-25T02:32:50.953Z,57.85
2023-02-25T02:35:22.388Z,58.38
2023-02-25T02:38:08.489Z,58.05
2023-02-25T02:40:47.204Z,57.62
2023-02-25T02:43:57.825Z,58.18
2023-02-25T02:46:30.430Z,57.66
2023-02-25T02:49:12.420Z,57.54
2023-02-25T02:51:48.970Z,57.28
2023-02-25T02:54:17.978Z,56.99
2023-02-25T02:56:49.338Z,57.23
2023-02-25T02:59:25.844Z,56.82
2023-02-25T03:02:00.250Z,56.82
2023-02-25T03:04:31.814Z,56.77
2023-02-25T03:07:04.398Z,56.63
2023-02-25T03:09:35.654Z,57.26
2023-02-25T03:12:02.571Z,57.32
2023-02-25T03:14:32.453Z,57.11
2023-02-25T03:17:10.057Z,57.74
2023-02-25T03:19:45.253Z,57.57
2023-02-25T03:22:19.486Z,56.79
2023-02-25T03:24:57.633Z,57.16
2023-02-25T03:27:29.267Z,57.70
2023-02-25T03:30:09.536Z,57.38
2023-02-25T03:32:38.294Z,58.32
2023-02-25T03:35:09.188Z,58.64
2023-02-25T03:37:38.986Z,58.57
2023-02-25T03:40:12.214Z,57.45
2023-02-25T03:42:44.831Z,58.17
2023-02-25T03:45:13.612Z,58.11
2023-02-25T03:47:41.672Z,57.39
2023-02-25T03:50:08.689Z,57.39
2023-02-25T03:52:36.394Z,57.50
2023-02-25T03:55:10.287Z,57.50
2023-02-25T03:57:40.754Z,56.65
2023-02-25T04:00:18.034Z,56.63
2023-02-25T04:02:47.348Z,57.43
2023-02-25T04:05:16.045Z,57.35
2023-02-25T04:07:42.983Z,57.42
2023-02-25T04:10:11.880Z,57.75
2023-02-25T04:12:39.617Z,57.55
2023-02-25T04:15:07.617Z,57.46
2023-02-25T04:17:35.132Z,56.99
2023-02-25T04:20:01.932Z,57.27
2023-02-25T04:22:28.551Z,57.80
2023-02-25T04:24:55.212Z,57.62
2023-02-25T04:27:21.811Z,58.01
2023-02-25T04:29:48.574Z,57.56
2023-02-25T04:32:15.397Z,57.63
2023-02-25T04:34:42.068Z,57.47
2023-02-25T04:37:09.918Z,57.56
2023-02-25T04:39:37.269Z,57.26
2023-02-25T04:42:04.184Z,57.18
2023-02-25T04:44:30.998Z,57.31
2023-02-25T04:46:57.741Z,57.10
2023-02-25T04:49:24.922Z,57.53
2023-02-25T04:51:52.033Z,56.99
2023-02-25T04:54:19.948Z,57.15
2023-02-25T04:56:47.744Z,56.74
2023-02-25T04:59:15.211Z,56.87
2023-02-25T05:01:42.040Z,56.63
2023-02-25T05:04:08.831Z,56.13
2023-02-25T05:06:35.490Z,56.52
2023-02-25T05:09:02.205Z,56.03
2023-02-25T05:11:29.599Z,56.63
2023-02-25T05:13:57.178Z,56.25
2023-02-25T05:16:25.039Z,55.72
2023-02-25T05:18:52.563Z,55.96
2023-02-25T05:21:24.607Z,56.13
2023-02-25T05:23:53.221Z,55.61
2023-02-25T05:26:22.164Z,55.94
2023-02-25T05:28:53.590Z,55.78
2023-02-25T05:31:21.492Z,55.60
2023-02-25T05:33:48.288Z,55.40
2023-02-25T05:36:16.068Z,55.90
2023-02-25T05:38:43.974Z,55.05
2023-02-25T05:41:12.007Z,55.20
2023-02-25T05:43:39.609Z,55.37
2023-02-25T05:46:11.498Z,55.16
2023-02-25T05:48:40.137Z,54.94
2023-02-25T05:51:11.873Z,54.02
2023-02-25T05:53:38.846Z,53.99
2023-02-25T05:56:07.439Z,54.02
2023-02-25T05:58:34.721Z,53.19
2023-02-25T06:01:16.485Z,53.62
2023-02-25T06:03:46.121Z,52.99
2023-02-25T06:06:14.682Z,53.25
2023-02-25T06:08:44.755Z,52.81
2023-02-25T06:11:15.836Z,52.83
2023-02-25T06:13:42.683Z,52.94
2023-02-25T06:16:09.723Z,53.09
2023-02-25T06:18:39.716Z,53.00
2023-02-25T06:21:08.971Z,53.50
2023-02-25T06:23:37.871Z,53.59
2023-02-25T06:26:07.710Z,54.04
2023-02-25T06:28:35.235Z,54.27
2023-02-25T06:31:02.090Z,55.50
2023-02-25T06:33:33.222Z,55.85
2023-02-25T06:36:00.041Z,56.09
2023-02-25T06:38:26.770Z,56.72
2023-02-25T06:40:53.414Z,56.03
2023-02-25T06:43:20.129Z,56.50
2023-02-25T06:45:46.740Z,57.05
2023-02-25T06:48:13.425Z,56.89
2023-02-25T06:50:41.032Z,57.26
2023-02-25T06:53:09.018Z,57.16
2023-02-25T06:55:39.175Z,58.02
2023-02-25T06:58:06.213Z,58.18
2023-02-25T07:00:33.015Z,58.04
2023-02-25T07:03:02.884Z,57.95
2023-02-25T07:05:29.595Z,57.74
2023-02-25T07:07:56.289Z,57.30
2023-02-25T07:10:22.931Z,57.57
2023-02-25T07:12:49.624Z,57.01
2023-02-25T07:15:16.232Z,56.64
2023-02-25T07:17:43.020Z,56.66
2023-02-25T07:20:10.447Z,56.86
2023-02-25T07:22:37.186Z,56.40
2023-02-25T07:25:04.854Z,57.14
2023-02-25T07:27:31.492Z,55.23
2023-02-25T07:29:58.140Z,55.12
2023-02-25T07:32:25.371Z,54.20
2023-02-25T07:34:52.159Z,53.12
2023-02-25T07:37:18.785Z,52.23
2023-02-25T07:39:47.603Z,52.46
2023-02-25T07:42:14.416Z,52.30
2023-02-25T07:44:45.287Z,52.53
2023-02-25T07:47:11.952Z,52.02
2023-02-25T07:49:38.619Z,51.81
2023-02-25T07:52:05.228Z,51.17
2023-02-25T07:54:31.871Z,51.42
2023-02-25T07:56:58.539Z,51.70
2023-02-25T07:59:25.199Z,51.98
2023-02-25T08:01:51.846Z,51.56
2023-02-25T08:04:18.624Z,51.76
2023-02-25T08:06:47.069Z,52.77
2023-02-25T08:09:13.970Z,52.65
2023-02-25T08:11:41.268Z,53.23
2023-02-25T08:14:07.992Z,52.84
2023-02-25T08:16:34.691Z,54.41
2023-02-25T08:19:01.899Z,53.90
2023-02-25T08:21:28.652Z,54.07
2023-02-25T08:23:55.291Z,54.08
2023-02-25T08:26:23.856Z,54.04
2023-02-25T08:28:51.194Z,54.68
2023-02-25T08:31:18.756Z,54.81
2023-02-25T08:33:52.711Z,53.88
2023-02-25T08:36:22.767Z,54.35
2023-02-25T08:38:50.414Z,54.79
2023-02-25T08:41:18.177Z,54.48
2023-02-25T08:43:47.999Z,54.18
2023-02-25T08:46:14.761Z,53.70
2023-02-25T08:48:41.433Z,54.24
2023-02-25T08:51:10.191Z,54.06
2023-02-25T08:53:38.834Z,53.98
2023-02-25T08:56:11.107Z,53.07
2023-02-25T08:58:38.566Z,52.66
2023-02-25T09:01:15.991Z,53.00
2023-02-25T09:03:51.076Z,53.53
2023-02-25T09:06:22.020Z,52.28
2023-02-25T09:08:49.391Z,52.31
2023-02-25T09:11:16.499Z,52.45
2023-02-25T09:13:43.235Z,52.24
2023-02-25T09:16:10.036Z,52.18
2023-02-25T09:18:36.853Z,51.62
2023-02-25T09:21:04.050Z,51.73
2023-02-25T09:23:30.741Z,51.28
2023-02-25T09:26:01.535Z,51.52
2023-02-25T09:28:28.201Z,52.30
2023-02-25T09:30:57.094Z,50.86
2023-02-25T09:33:25.019Z,50.64
2023-02-25T09:35:52.652Z,50.78
2023-02-25T09:38:19.632Z,50.35
2023-02-25T09:40:47.940Z,50.72
2023-02-25T09:43:26.718Z,50.86
2023-02-25T09:45:58.918Z,50.66
2023-02-25T09:48:33.388Z,51.84
2023-02-25T09:51:31.301Z,52.29
2023-02-25T09:54:04.057Z,51.27
2023-02-25T09:56:30.938Z,50.25
2023-02-25T09:58:58.956Z,50.31
2023-02-25T10:01:36.307Z,49.17
2023-02-25T10:04:13.364Z,48.80
2023-02-25T10:06:43.718Z,48.74
2023-02-25T10:09:45.299Z,48.42
2023-02-25T10:12:40.814Z,48.32
2023-02-25T10:15:26.246Z,49.47
2023-02-25T10:18:31.092Z,48.01
2023-02-25T10:21:45.544Z,47.12
2023-02-25T10:24:25.019Z,48.04
2023-02-25T10:27:00.121Z,47.60
2023-02-25T10:29:40.033Z,47.19
2023-02-25T10:32:19.978Z,46.25
2023-02-25T10:34:47.178Z,45.12
2023-02-25T10:37:30.634Z,44.58
2023-02-25T10:39:59.916Z,45.22
2023-02-25T10:42:27.471Z,44.34
2023-02-25T10:45:09.859Z,43.99
2023-02-25T10:47:40.728Z,42.30
2023-02-25T10:50:32.518Z,41.74
2023-02-25T10:53:17.252Z,40.98
2023-02-25T10:55:43.963Z,38.91
2023-02-25T10:58:25.941Z,38.94
2023-02-25T11:01:00.846Z,38.18
2023-02-25T11:03:30.900Z,38.68
2023-02-25T11:06:35.434Z,37.65
2023-02-25T11:09:06.307Z,37.88
2023-02-25T11:11:37.208Z,37.03
2023-02-25T11:14:14.993Z,37.86
2023-02-25T11:16:44.383Z,38.88
2023-02-25T11:19:22.839Z,39.68
2023-02-25T11:21:50.006Z,40.44
2023-02-25T11:24:18.765Z,40.59
2023-02-25T11:26:47.902Z,41.21
2023-02-25T11:29:25.845Z,41.32
2023-02-25T11:31:58.834Z,41.28
2023-02-25T11:34:30.883Z,41.75
2023-02-25T11:37:25.257Z,41.74
2023-02-25T11:39:53.839Z,42.72
2023-02-25T11:42:26.523Z,41.30
2023-02-25T11:45:01.442Z,41.42
2023-02-25T11:47:37.995Z,41.31
2023-02-25T11:50:09.572Z,42.23
2023-02-25T11:52:47.086Z,41.95
2023-02-25T11:55:43.118Z,42.32
2023-02-25T11:58:26.817Z,42.65
2023-02-25T12:01:12.480Z,42.53
2023-02-25T12:03:43.475Z,41.87
2023-02-25T12:06:10.194Z,41.40
2023-02-25T12:08:50.086Z,40.69
2023-02-25T12:11:58.380Z,38.17
2023-02-25T12:15:02.478Z,37.82
2023-02-25T12:18:06.225Z,37.50
2023-02-25T12:20:54.007Z,36.54
2023-02-25T12:23:23.637Z,35.26
2023-02-25T12:26:14.747Z,35.50
2023-02-25T12:28:59.955Z,36.21
2023-02-25T12:31:41.215Z,36.78
2023-02-25T12:34:31.948Z,37.06
2023-02-25T12:37:16.473Z,37.76
2023-02-25T12:40:16.881Z,38.72
2023-02-25T12:43:13.618Z,39.07
2023-02-25T12:45:54.915Z,39.99
2023-02-25T12:48:37.441Z,40.82
2023-02-25T12:51:04.066Z,41.93
2023-02-25T12:54:04.149Z,41.67
2023-02-25T12:56:43.006Z,42.39
2023-02-25T12:59:28.653Z,42.08
2023-02-25T13:02:33.943Z,41.84
2023-02-25T13:05:15.609Z,41.00
2023-02-25T13:07:48.140Z,40.27
2023-02-25T13:10:25.781Z,39.67
2023-02-25T13:13:04.621Z,37.95
2023-02-25T13:15:36.676Z,37.53
2023-02-25T13:18:23.607Z,36.48
2023-02-25T13:21:12.048Z,36.31
2023-02-25T13:23:48.170Z,36.00
2023-02-25T13:26:36.334Z,35.49
2023-02-25T13:29:11.816Z,36.10
2023-02-25T13:32:13.479Z,37.80
2023-02-25T13:34:50.382Z,37.07
2023-02-25T13:38:02.073Z,38.12
2023-02-25T13:40:50.766Z,37.48
2023-02-25T13:43:39.238Z,37.41
2023-02-25T13:46:28.771Z,38.16
2023-02-25T13:49:26.371Z,37.97
2023-02-25T13:52:01.953Z,37.45
2023-02-25T13:55:06.160Z,36.49
2023-02-25T13:57:57.844Z,36.20
2023-02-25T14:00:55.927Z,36.87
2023-02-25T14:03:48.338Z,36.88
2023-02-25T14:06:17.926Z,36.77
2023-02-25T14:09:00.188Z,37.41
2023-02-25T14:11:43.591Z,38.02
2023-02-25T14:14:28.511Z,37.65
2023-02-25T14:17:00.857Z,38.44
2023-02-25T14:19:37.051Z,38.54
2023-02-25T14:22:20.906Z,38.29
2023-02-25T14:25:17.183Z,38.32
2023-02-25T14:28:05.888Z,39.31
2023-02-25T14:30:50.888Z,38.33
2023-02-25T14:33:54.752Z,38.27
2023-02-25T14:36:44.521Z,39.07
2023-02-25T14:39:29.775Z,38.27
2023-02-25T14:42:16.492Z,37.98
2023-02-25T14:44:56.652Z,39.21
2023-02-25T14:47:29.573Z,38.71
2023-02-25T14:50:09.312Z,38.73
2023-02-25T14:52:49.625Z,38.14
2023-02-25T14:55:53.937Z,38.61
2023-02-25T14:58:39.268Z,39.29
2023-02-25T15:01:37.129Z,39.02
2023-02-25T15:04:43.397Z,39.63
2023-02-25T15:07:26.731Z,40.39
2023-02-25T15:10:23.072Z,40.19
2023-02-25T15:13:02.533Z,40.69
2023-02-25T15:16:03.801Z,40.99
2023-02-25T15:18:39.604Z,40.86
2023-02-25T15:21:40.181Z,41.68
2023-02-25T15:24:38.413Z,41.52
2023-02-25T15:27:31.356Z,41.82
2023-02-25T15:30:03.238Z,42.12
2023-02-25T15:32:46.755Z,41.73
2023-02-25T15:35:20.123Z,42.15
2023-02-25T15:37:49.696Z,42.49
2023-02-25T15:40:16.318Z,42.18
2023-02-25T15:42:54.169Z,42.37
2023-02-25T15:45:27.349Z,42.70
2023-02-25T15:48:19.231Z,42.91
2023-02-25T15:50:48.886Z,43.81
2023-02-25T15:53:21.744Z,44.19
2023-02-25T15:55:53.536Z,44.59
2023-02-25T15:58:23.384Z,45.46
2023-02-25T16:00:54.272Z,45.73
2023-02-25T16:03:36.128Z,45.78
2023-02-25T16:06:27.512Z,44.03
2023-02-25T16:09:14.161Z,44.42
2023-02-25T16:11:45.158Z,44.53
2023-02-25T16:14:15.033Z,44.06
2023-02-25T16:16:48.209Z,44.71
2023-02-25T16:19:18.766Z,44.78
2023-02-25T16:21:52.146Z,44.50
2023-02-25T16:24:19.924Z,44.36
2023-02-25T16:26:49.904Z,44.61
2023-02-25T16:29:22.662Z,44.68
2023-02-25T16:31:55.262Z,44.86
2023-02-25T16:34:33.141Z,44.72
2023-02-25T16:37:16.418Z,45.59
2023-02-25T16:39:43.099Z,44.70
2023-02-25T16:42:16.570Z,45.11
2023-02-25T16:45:03.857Z,45.02
2023-02-25T16:47:34.107Z,46.12
2023-02-25T16:50:07.749Z,46.18
2023-02-25T16:52:40.932Z,46.05
2023-02-25T16:55:12.587Z,45.00
2023-02-25T16:57:39.764Z,44.40
2023-02-25T17:00:20.158Z,44.09
2023-02-25T17:02:50.629Z,43.65
2023-02-25T17:05:36.547Z,44.15
2023-02-25T17:08:06.326Z,44.50
2023-02-25T17:10:42.460Z,43.98
2023-02-25T17:13:27.415Z,44.49
2023-02-25T17:15:54.857Z,44.31
2023-02-25T17:18:32.683Z,44.40
2023-02-25T17:21:19.583Z,44.60
2023-02-25T17:23:47.040Z,44.54
2023-02-25T17:26:18.504Z,44.67
2023-02-25T17:28:48.306Z,45.87
2023-02-25T17:31:18.601Z,46.21
2023-02-25T17:33:49.133Z,46.56
2023-02-25T17:36:19.579Z,47.26
2023-02-25T17:38:47.007Z,46.80
2023-02-25T17:41:21.781Z,47.19
2023-02-25T17:43:48.476Z,46.52
2023-02-25T17:46:38.188Z,46.20
2023-02-25T17:49:31.105Z,45.82
2023-02-25T17:52:01.425Z,46.38
2023-02-25T17:54:32.774Z,46.46
2023-02-25T17:57:03.635Z,46.23
2023-02-25T17:59:41.630Z,45.77
2023-02-25T18:02:46.700Z,45.22
2023-02-25T18:05:13.374Z,46.16
2023-02-25T18:07:42.616Z,46.03
2023-02-25T18:10:31.398Z,46.59
2023-02-25T18:13:00.355Z,46.70
2023-02-25T18:15:30.892Z,46.87
2023-02-25T18:18:01.405Z,47.44
2023-02-25T18:20:32.039Z,47.39
2023-02-25T18:23:04.579Z,47.51
2023-02-25T18:25:31.299Z,48.19
2023-02-25T18:27:58.145Z,48.25
2023-02-25T18:30:27.407Z,47.92
2023-02-25T18:32:54.391Z,47.59
2023-02-25T18:35:21.947Z,47.35
2023-02-25T18:37:50.410Z,47.65
2023-02-25T18:40:40.524Z,47.44
2023-02-25T18:43:07.452Z,47.66
2023-02-25T18:45:34.435Z,47.87
2023-02-25T18:48:01.696Z,47.87
2023-02-25T18:50:30.142Z,48.29
2023-02-25T18:52:56.819Z,48.30
2023-02-25T18:55:30.166Z,48.70
2023-02-25T18:57:57.488Z,48.40
2023-02-25T19:00:27.310Z,48.35
2023-02-25T19:02:57.484Z,48.31
2023-02-25T19:05:25.770Z,48.33
2023-02-25T19:07:53.108Z,48.29
2023-02-25T19:10:22.880Z,48.58
2023-02-25T19:12:52.090Z,48.72
2023-02-25T19:15:21.224Z,48.97
2023-02-25T19:17:49.307Z,48.77
2023-02-25T19:20:18.571Z,48.85
2023-02-25T19:22:47.677Z,48.61
2023-02-25T19:25:28.081Z,48.49
2023-02-25T19:27:56.330Z,48.82
2023-02-25T19:30:30.942Z,48.77
2023-02-25T19:33:03.529Z,48.41
2023-02-25T19:35:35.152Z,49.13
2023-02-25T19:38:02.436Z,49.05
2023-02-25T19:40:29.407Z,49.24
2023-02-25T19:42:56.282Z,48.25
2023-02-25T19:45:24.316Z,48.66
2023-02-25T19:47:52.524Z,48.56
2023-02-25T19:50:20.818Z,48.37
2023-02-25T19:52:47.619Z,47.89
2023-02-25T19:55:14.688Z,47.80
2023-02-25T19:57:42.026Z,47.16
2023-02-25T20:00:13.802Z,47.25
2023-02-25T20:02:41.167Z,46.67
2023-02-25T20:05:08.866Z,47.06
2023-02-25T20:07:35.653Z,47.82
2023-02-25T20:10:02.394Z,48.12
2023-02-25T20:12:29.038Z,47.59
2023-02-25T20:14:56.979Z,48.08
2023-02-25T20:17:25.175Z,47.55
2023-02-25T20:19:52.725Z,47.27
2023-02-25T20:22:23.616Z,48.54
2023-02-25T20:24:50.948Z,48.81
2023-02-25T20:27:17.970Z,49.00
2023-02-25T20:29:44.776Z,48.20
2023-02-25T20:32:11.610Z,47.88
2023-02-25T20:34:38.948Z,47.81
2023-02-25T20:37:17.387Z,47.83
2023-02-25T20:39:54.909Z,47.88
2023-02-25T20:42:25.132Z,47.80
2023-02-25T20:44:52.918Z,48.28
2023-02-25T20:47:21.786Z,47.51
2023-02-25T20:49:49.299Z,47.08
2023-02-25T20:52:18.629Z,47.70
2023-02-25T20:54:46.211Z,47.11
2023-02-25T20:57:16.835Z,47.06
2023-02-25T20:59:43.513Z,46.85
2023-02-25T21:02:11.349Z,46.59
2023-02-25T21:04:38.450Z,46.63
2023-02-25T21:07:06.982Z,47.55
2023-02-25T21:09:34.484Z,47.65
2023-02-25T21:12:01.568Z,48.15
2023-02-25T21:14:28.297Z,48.07
2023-02-25T21:16:55.051Z,48.42
2023-02-25T21:19:26.597Z,48.27
2023-02-25T21:21:53.463Z,48.46
2023-02-25T21:24:20.774Z,47.96
2023-02-25T21:26:47.617Z,48.59
2023-02-25T21:29:14.906Z,48.17
2023-02-25T21:31:42.180Z,48.10
2023-02-25T21:34:11.632Z,48.75
2023-02-25T21:36:39.136Z,48.61
2023-02-25T21:39:06.932Z,48.36
2023-02-25T21:41:33.650Z,48.59
2023-02-25T21:44:00.264Z,48.27
2023-02-25T21:46:27.611Z,48.72
2023-02-25T21:48:55.886Z,48.54
2023-02-25T21:51:25.045Z,48.49
2023-02-25T21:53:56.501Z,49.08
2023-02-25T21:56:24.317Z,48.67
2023-02-25T21:58:56.182Z,48.26
2023-02-25T22:01:25.827Z,48.66
2023-02-25T22:03:52.550Z,48.41
2023-02-25T22:06:19.685Z,48.71
2023-02-25T22:08:46.331Z,48.75
2023-02-25T22:11:19.280Z,48.50
2023-02-25T22:13:46.153Z,48.82
2023-02-25T22:16:14.706Z,48.36
2023-02-25T22:18:41.912Z,48.67
2023-02-25T22:21:16.626Z,48.81
2023-02-25T22:23:43.629Z,48.35
2023-02-25T22:26:12.795Z,48.86
2023-02-25T22:28:39.947Z,48.36
2023-02-25T22:31:10.494Z,48.88
2023-02-25T22:33:37.430Z,48.46
2023-02-25T22:36:05.869Z,48.83
2023-02-25T22:38:35.105Z,49.19
2023-02-25T22:41:01.885Z,48.66
2023-02-25T22:43:29.980Z,48.78
2023-02-25T22:46:18.134Z,49.49
2023-02-25T22:48:47.008Z,49.17
2023-02-25T22:51:18.303Z,48.97
2023-02-25T22:53:45.113Z,48.49
2023-02-25T22:56:11.763Z,49.09
2023-02-25T22:58:40.528Z,48.80
2023-02-25T23:01:08.678Z,49.18
2023-02-25T23:03:35.427Z,48.73
2023-02-25T23:06:02.313Z,49.41
2023-02-25T23:08:29.033Z,49.15
2023-02-25T23:10:55.746Z,49.63
2023-02-25T23:13:22.424Z,49.12
2023-02-25T23:15:49.531Z,49.65
2023-02-25T23:18:16.536Z,49.66
2023-02-25T23:20:43.777Z,49.53
2023-02-25T23:23:13.493Z,49.71
2023-02-25T23:25:42.385Z,49.09
2023-02-25T23:28:09.713Z,50.05
2023-02-25T23:30:38.604Z,50.18
2023-02-25T23:33:06.310Z,50.12
2023-02-25T23:35:33.691Z,50.37
2023-02-25T23:38:00.935Z,49.00
2023-02-25T23:40:28.846Z,48.32
2023-02-25T23:42:56.103Z,49.36
2023-02-25T23:45:22.931Z,49.20
2023-02-25T23:47:49.698Z,49.42
2023-02-25T23:50:17.549Z,49.22
2023-02-25T23:52:45.945Z,49.50
2023-02-25T23:55:15.288Z,49.71
2023-02-25T23:57:42.038Z,49.31
